Time;durP1;ratioP1;P1;durP2;ratioP2;P2;SDS_P1;SDS_P2;PMS_P1;PMS_P2;Temp;Humidity;BMP_temperature;BMP_pressure;BME280_temperature;BME280_humidity;BME280_pressure;Samples;Min_cycle;Max_cycle;Signal;HPM_P1;HPM_P2
2022/05/02 00:02:07;;;;;;;15.98;11.30;;;;;;;11.41;62.00;101382.72;5073949;28;20029;-45
2022/05/02 00:04:33;;;;;;;14.65;12.23;;;;;;;11.22;62.56;101357.94;5074254;28;20492;-43
2022/05/02 00:06:59;;;;;;;13.98;11.38;;;;;;;11.33;62.47;101383.63;5055434;28;20507;-44
2022/05/02 00:09:24;;;;;;;13.73;11.75;;;;;;;11.33;62.36;101385.44;5073769;28;20040;-45
2022/05/02 00:11:50;;;;;;;14.25;10.45;;;;;;;11.30;62.65;101373.19;5073749;28;20032;-44
2022/05/02 00:14:16;;;;;;;13.98;10.90;;;;;;;11.33;62.28;101380.91;5072692;28;20389;-43
2022/05/02 00:16:42;;;;;;;12.15;10.85;;;;;;;11.32;62.14;101387.31;5073711;28;20108;-43
2022/05/02 00:19:07;;;;;;;15.90;11.48;;;;;;;11.28;63.03;101379.78;5073767;28;20051;-46
2022/05/02 00:21:33;;;;;;;12.98;11.15;;;;;;;11.28;62.69;101374.41;5073686;28;20043;-44
2022/05/02 00:23:59;;;;;;;11.70;9.82;;;;;;;11.08;62.36;101350.63;5073822;28;20048;-47
2022/05/02 00:26:25;;;;;;;13.43;11.02;;;;;;;11.23;62.66;101377.59;5073224;28;20038;-44
2022/05/02 00:28:51;;;;;;;19.83;12.88;;;;;;;11.10;62.96;101355.81;5073453;28;20040;-45
2022/05/02 00:31:17;;;;;;;16.73;12.73;;;;;;;11.15;63.20;101369.59;5073245;28;20124;-44
2022/05/02 00:33:42;;;;;;;17.42;12.60;;;;;;;11.17;63.07;101359.50;5055291;28;20032;-43
2022/05/02 00:36:08;;;;;;;14.30;10.85;;;;;;;11.22;63.12;101367.88;5055012;28;20028;-44
2022/05/02 00:38:34;;;;;;;14.30;10.98;;;;;;;11.18;62.98;101371.91;5073318;28;20107;-43
2022/05/02 00:41:00;;;;;;;13.77;11.63;;;;;;;11.09;63.59;101365.75;5055936;28;20439;-44
2022/05/02 00:43:26;;;;;;;16.95;12.02;;;;;;;11.08;64.09;101380.19;5055263;28;20029;-44
2022/05/02 00:45:52;;;;;;;13.57;11.30;;;;;;;11.03;64.11;101380.72;5073184;28;20044;-44
2022/05/02 00:48:18;;;;;;;13.60;10.27;;;;;;;11.02;64.26;101375.50;5072786;28;20063;-44
2022/05/02 00:50:47;;;;;;;13.48;11.45;;;;;;;10.97;64.78;101359.91;5055306;28;20111;-43
2022/05/02 00:53:15;;;;;;;12.43;11.18;;;;;;;10.96;64.74;101373.53;5072495;28;20029;-45
2022/05/02 00:55:43;;;;;;;11.82;10.63;;;;;;;10.98;65.05;101375.03;5054625;28;20021;-44
2022/05/02 00:58:08;;;;;;;15.10;12.07;;;;;;;10.98;64.50;101372.34;5072274;28;20353;-44
2022/05/02 01:00:38;;;;;;;13.18;10.45;;;;;;;10.95;64.52;101367.28;5057021;28;20037;-48
2022/05/02 01:03:06;;;;;;;12.15;10.93;;;;;;;10.97;64.86;101370.66;5072915;28;20105;-47
2022/05/02 01:07:08;;;;;;;15.18;12.88;;;;;;;10.91;65.43;101359.78;5073845;28;20036;-44
2022/05/02 01:08:26;;;;;;;12.82;11.23;;;;;;;10.84;65.25;101360.44;5057897;28;20033;-44
2022/05/02 01:10:54;;;;;;;12.02;10.32;;;;;;;10.82;65.94;101357.09;5072522;28;20036;-46
2022/05/02 01:13:39;;;;;;;14.88;10.32;;;;;;;10.89;65.53;101365.31;5072577;28;20489;-44
2022/05/02 01:16:22;;;;;;;;;;;;;;;10.80;66.95;101361.81;5072748;28;20025;-46
2022/05/02 01:18:50;;;;;;;16.48;13.27;;;;;;;10.70;66.77;101363.00;5054618;28;19946;-44
2022/05/02 01:21:19;;;;;;;23.02;15.32;;;;;;;10.76;66.27;101362.34;5072506;28;20050;-45
2022/05/02 01:23:49;;;;;;;20.25;14.27;;;;;;;10.74;66.13;101367.06;5053874;28;20507;-45
2022/05/02 01:26:15;;;;;;;14.52;10.88;;;;;;;10.81;65.60;101363.50;5072791;28;20074;-44
2022/05/02 01:28:46;;;;;;;14.68;12.73;;;;;;;10.80;66.26;101363.66;5054537;28;20033;-44
2022/05/02 01:31:13;;;;;;;18.52;13.43;;;;;;;10.73;66.58;101371.56;5037860;28;20377;-45
2022/05/02 01:33:39;;;;;;;14.25;12.48;;;;;;;10.64;67.22;101375.28;5072306;28;20028;-45
2022/05/02 01:36:06;;;;;;;19.83;15.18;;;;;;;10.57;67.29;101364.41;5071900;28;20074;-45
2022/05/02 01:38:32;;;;;;;16.95;12.68;;;;;;;10.58;67.58;101366.06;5072009;28;20029;-47
2022/05/02 01:40:59;;;;;;;13.13;11.63;;;;;;;10.62;66.63;101364.72;5072201;28;20176;-44
2022/05/02 01:43:26;;;;;;;16.02;11.85;;;;;;;10.56;66.64;101346.59;5072401;28;20025;-48
2022/05/02 01:45:52;;;;;;;14.90;12.52;;;;;;;10.65;66.74;101361.69;5047752;28;20064;-46
2022/05/02 01:48:17;;;;;;;14.68;11.93;;;;;;;10.68;66.69;101362.34;5070691;28;20040;-45
2022/05/02 01:50:43;;;;;;;13.07;11.68;;;;;;;10.59;66.51;101345.44;5072180;28;20090;-47
2022/05/02 01:53:09;;;;;;;14.00;12.50;;;;;;;10.67;66.23;101350.78;5054204;28;20453;-44
2022/05/02 01:55:35;;;;;;;19.83;14.85;;;;;;;10.66;67.14;101359.84;5037389;28;20028;-46
2022/05/02 01:58:00;;;;;;;20.70;15.45;;;;;;;10.58;67.18;101355.31;5072257;28;20032;-47
2022/05/02 02:00:26;;;;;;;15.48;12.85;;;;;;;10.56;67.71;101362.72;5056519;28;20119;-50
2022/05/02 02:02:52;;;;;;;13.18;11.77;;;;;;;10.49;68.02;101356.34;5075387;28;20071;-48
2022/05/02 02:08:04;;;;;;;13.50;12.13;;;;;;;10.47;68.33;101363.75;5060313;28;20107;-45
2022/05/02 02:10:30;;;;;;;18.67;13.05;;;;;;;10.50;68.26;101362.56;5040542;28;20571;-45
2022/05/02 02:12:55;;;;;;;15.13;11.55;;;;;;;10.41;68.03;101346.47;5074797;28;20111;-45
2022/05/02 02:15:21;;;;;;;18.90;14.45;;;;;;;10.35;68.52;101344.47;5075019;28;20021;-44
2022/05/02 02:17:47;;;;;;;16.67;12.88;;;;;;;10.42;68.66;101355.38;5074167;28;20033;-46
2022/05/02 02:20:13;;;;;;;16.88;13.88;;;;;;;10.45;68.06;101361.22;5075174;28;20396;-46
2022/05/02 02:22:40;;;;;;;14.30;12.65;;;;;;;10.37;68.18;101347.81;5078293;28;20025;-46
2022/05/02 02:25:06;;;;;;;18.48;15.15;;;;;;;10.46;67.78;101357.53;5043248;28;20024;-44
2022/05/02 02:27:32;;;;;;;16.80;13.15;;;;;;;10.55;67.38;101357.50;5077264;28;20127;-46
2022/05/02 02:29:59;;;;;;;18.48;13.70;;;;;;;10.64;67.40;101367.22;5076054;28;20035;-45
2022/05/02 02:32:26;;;;;;;17.08;12.77;;;;;;;10.60;67.40;101366.72;5074754;28;20079;-46
2022/05/02 02:34:52;;;;;;;16.73;12.50;;;;;;;10.48;68.03;101353.84;5056548;28;20024;-44
2022/05/02 02:37:17;;;;;;;21.42;14.85;;;;;;;10.57;68.07;101364.41;5074231;28;20468;-45
2022/05/02 02:39:43;;;;;;;15.40;11.75;;;;;;;10.55;67.62;101362.88;5074642;28;20060;-45
2022/05/02 02:42:10;;;;;;;16.85;13.18;;;;;;;10.56;68.02;101364.56;5074545;28;20052;-46
2022/05/02 02:44:36;;;;;;;17.75;13.15;;;;;;;10.61;67.20;101362.22;5060049;28;20048;-45
2022/05/02 02:47:02;;;;;;;18.77;13.77;;;;;;;10.64;66.81;101356.47;5093498;28;20078;-44
2022/05/02 02:49:28;;;;;;;20.25;14.32;;;;;;;10.71;67.11;101362.00;5094542;28;20046;-46
2022/05/02 02:51:54;;;;;;;17.08;13.18;;;;;;;10.68;66.98;101351.59;5095183;28;20036;-45
2022/05/02 02:54:20;;;;;;;16.33;13.27;;;;;;;10.72;66.74;101361.84;5076177;28;20031;-44
2022/05/02 02:56:46;;;;;;;14.40;12.60;;;;;;;10.75;66.51;101355.28;5093064;28;20020;-46
2022/05/02 02:59:12;;;;;;;14.88;11.98;;;;;;;10.75;66.66;101358.78;5094709;28;20027;-48
2022/05/02 03:01:39;;;;;;;18.05;14.25;;;;;;;10.64;67.46;101351.09;5076399;28;20032;-46
2022/05/02 03:06:01;;;;;;;16.55;13.60;;;;;;;10.68;67.28;101357.84;5094711;28;20036;-45
2022/05/02 03:06:50;;;;;;;15.48;12.05;;;;;;;10.64;67.65;101351.09;5079146;28;20067;-46
2022/05/02 03:09:16;;;;;;;18.77;14.02;;;;;;;10.57;67.38;101342.91;5094687;28;20461;-48
2022/05/02 03:11:42;;;;;;;19.92;13.98;;;;;;;10.44;68.64;101346.13;5094181;28;20039;-44
2022/05/02 03:14:08;;;;;;;19.00;13.15;;;;;;;10.39;68.57;101344.97;5093881;28;20179;-47
2022/05/02 03:16:34;;;;;;;12.43;11.15;;;;;;;10.26;68.97;101330.19;5076199;28;20445;-45
2022/05/02 03:19:00;;;;;;;13.20;11.65;;;;;;;10.39;68.82;101347.66;5094493;28;20061;-46
2022/05/02 03:21:25;;;;;;;17.25;11.85;;;;;;;10.35;68.94;101351.69;5094353;28;20028;-45
2022/05/02 03:23:51;;;;;;;13.52;12.07;;;;;;;10.28;68.50;101348.81;5075918;28;20031;-48
2022/05/02 03:26:17;;;;;;;16.60;12.88;;;;;;;10.24;69.08;101347.47;5075722;28;20114;-44
2022/05/02 03:28:43;;;;;;;23.85;15.63;;;;;;;10.17;69.18;101343.78;5093935;28;20035;-45
2022/05/02 03:31:08;;;;;;;15.63;13.30;;;;;;;10.08;69.93;101348.31;5094214;28;20379;-45
2022/05/02 03:33:34;;;;;;;19.17;14.73;;;;;;;10.02;69.35;101333.72;5094158;28;20027;-60
2022/05/02 03:36:00;;;;;;;17.50;13.25;;;;;;;10.00;69.18;101334.91;5095157;28;20470;-51
2022/05/02 03:38:25;;;;;;;13.30;11.90;;;;;;;9.99;69.55;101335.91;5094704;28;20024;-44
2022/05/02 03:40:51;;;;;;;15.63;11.93;;;;;;;9.90;69.78;101337.78;5094415;28;20028;-45
2022/05/02 03:43:17;;;;;;;12.82;11.50;;;;;;;9.75;69.62;101320.66;5075892;28;20032;-44
2022/05/02 03:45:43;;;;;;;14.80;12.25;;;;;;;9.78;69.87;101339.94;5079072;28;20143;-44
2022/05/02 03:48:08;;;;;;;16.50;13.90;;;;;;;9.73;69.80;101344.13;5072901;28;20465;-45
2022/05/02 03:50:34;;;;;;;19.33;13.98;;;;;;;9.57;69.94;101318.13;5073240;28;20036;-45
2022/05/02 03:53:00;;;;;;;18.30;14.13;;;;;;;9.64;70.38;101333.38;5073305;28;20028;-44
2022/05/02 03:55:26;;;;;;;16.90;13.13;;;;;;;9.61;70.48;101338.25;5073087;28;20111;-44
2022/05/02 03:57:52;;;;;;;19.35;14.20;;;;;;;9.54;70.75;101335.38;5072842;28;20028;-44
2022/05/02 04:00:18;;;;;;;19.70;13.77;;;;;;;9.50;70.72;101339.41;5073406;28;20056;-45
2022/05/02 04:02:44;;;;;;;18.20;13.30;;;;;;;9.45;70.37;101331.00;5073346;28;20028;-45
2022/05/02 04:05:10;;;;;;;15.52;12.57;;;;;;;9.36;70.63;101322.13;5073163;28;20098;-45
2022/05/02 04:07:36;;;;;;;17.23;12.90;;;;;;;9.44;70.71;101340.91;5055395;28;20024;-45
2022/05/02 04:10:03;;;;;;;18.80;12.75;;;;;;;9.27;70.73;101318.59;5055480;28;20130;-45
2022/05/02 04:12:38;;;;;;;17.80;12.77;;;;;;;9.16;70.81;101308.16;5055458;28;20131;-44
2022/05/02 04:15:05;;;;;;;15.52;12.70;;;;;;;9.30;70.88;101338.84;5072876;28;20032;-45
2022/05/02 04:17:31;;;;;;;16.27;13.18;;;;;;;9.28;71.29;101338.16;5055781;28;20043;-44
2022/05/02 04:19:57;;;;;;;20.70;14.52;;;;;;;9.18;71.01;101324.91;5038279;28;20032;-44
2022/05/02 04:22:23;;;;;;;16.92;14.10;;;;;;;9.28;71.09;101341.69;5072696;28;20061;-44
2022/05/02 04:24:48;;;;;;;15.90;12.80;;;;;;;9.18;71.66;101342.84;5074062;28;20017;-44
2022/05/02 04:27:14;;;;;;;17.15;12.98;;;;;;;9.14;71.46;101333.44;5074756;28;20415;-45
2022/05/02 04:29:40;;;;;;;17.00;13.85;;;;;;;9.01;71.47;101320.53;5074490;28;20040;-44
2022/05/02 04:32:06;;;;;;;18.50;14.48;;;;;;;9.10;71.52;101349.00;5074389;28;20054;-44
2022/05/02 04:34:32;;;;;;;19.25;13.95;;;;;;;9.06;71.60;101336.94;5040329;28;20033;-46
2022/05/02 04:36:58;;;;;;;22.40;14.68;;;;;;;9.00;71.76;101338.41;5075331;28;20499;-44
2022/05/02 04:39:24;;;;;;;21.70;13.80;;;;;;;8.95;71.70;101335.38;5075988;28;20419;-44
2022/05/02 04:41:49;;;;;;;18.92;12.63;;;;;;;8.94;71.72;101333.72;5057840;28;20028;-45
2022/05/02 04:44:15;;;;;;;20.42;14.13;;;;;;;9.00;71.83;101340.25;5073873;28;20032;-45
2022/05/02 04:46:41;;;;;;;27.73;18.00;;;;;;;9.02;71.59;101341.78;5074700;28;20069;-46
2022/05/02 04:49:07;;;;;;;21.65;15.73;;;;;;;9.00;71.57;101326.88;5074608;28;20074;-45
2022/05/02 04:51:33;;;;;;;24.15;17.45;;;;;;;8.99;72.67;101339.44;5073817;28;20114;-45
2022/05/02 04:53:58;;;;;;;29.75;19.70;;;;;;;8.94;72.89;101340.91;5073740;28;20135;-44
2022/05/02 04:56:24;;;;;;;29.88;18.98;;;;;;;8.82;72.75;101329.63;5072922;28;20039;-45
2022/05/02 04:58:50;;;;;;;24.80;16.85;;;;;;;8.82;73.13;101337.66;5072732;28;20483;-44
2022/05/02 05:01:16;;;;;;;19.70;15.95;;;;;;;8.71;72.75;101330.75;5072795;28;20047;-45
2022/05/02 05:03:42;;;;;;;21.50;16.17;;;;;;;8.74;72.70;101343.00;5072701;28;20043;-47
2022/05/02 05:06:08;;;;;;;20.77;14.20;;;;;;;8.71;72.87;101339.66;5072636;28;20037;-45
2022/05/02 05:08:34;;;;;;;18.30;13.50;;;;;;;8.68;72.65;101348.00;5072702;28;20429;-45
2022/05/02 05:11:30;;;;;;;27.08;17.50;;;;;;;8.66;72.73;101350.00;5070769;28;20048;-44
2022/05/02 05:17:39;;;;;;;31.95;19.55;;;;;;;8.57;73.52;101336.72;5057291;28;20024;-46
2022/05/02 05:20:21;;;;;;;21.05;15.95;;;;;;;8.58;73.04;101344.59;5029570;28;20036;-45
2022/05/02 05:23:05;;;;;;;18.80;14.63;;;;;;;8.62;72.32;101345.97;5056161;28;20029;-45
2022/05/02 05:25:58;;;;;;;18.73;14.18;;;;;;;8.70;73.04;101348.66;5071535;28;20029;-44
2022/05/02 05:28:43;;;;;;;28.52;17.85;;;;;;;8.68;73.01;101342.63;5058438;28;20059;-45
2022/05/02 05:31:29;;;;;;;21.52;15.82;;;;;;;8.80;73.44;101350.38;5072368;28;20380;-44
2022/05/02 05:34:26;;;;;;;23.25;16.95;;;;;;;8.93;72.92;101356.13;5054490;28;20043;-45
2022/05/02 05:37:26;;;;;;;27.92;17.27;;;;;;;8.99;73.07;101352.84;5076323;28;20052;-46
2022/05/02 05:40:10;;;;;;;29.42;18.77;;;;;;;8.97;72.78;101351.28;5061447;28;20329;-44
2022/05/02 05:42:47;;;;;;;26.45;18.00;;;;;;;9.02;72.76;101351.66;5075771;28;20029;-44
2022/05/02 05:45:48;;;;;;;28.38;18.92;;;;;;;9.10;72.67;101355.22;5049992;28;20051;-48
2022/05/02 05:48:28;;;;;;;20.65;15.65;;;;;;;9.18;72.31;101364.28;5066324;28;20123;-47
2022/05/02 05:51:13;;;;;;;25.50;17.25;;;;;;;9.19;72.84;101349.88;5096371;28;20074;-45
2022/05/02 05:54:09;;;;;;;24.95;17.30;;;;;;;9.45;71.84;101357.81;5078734;28;20111;-44
2022/05/02 05:57:03;;;;;;;25.23;16.48;;;;;;;9.69;71.78;101370.44;5081533;28;20444;-45
2022/05/02 06:00:05;;;;;;;22.83;16.23;;;;;;;10.04;70.93;101366.59;5050601;28;20035;-52
2022/05/02 06:02:56;;;;;;;25.92;18.33;;;;;;;9.72;72.01;101366.59;5083183;28;20035;-49
2022/05/02 06:05:26;;;;;;;33.95;22.38;;;;;;;9.63;72.69;101371.09;5083103;28;20039;-43
2022/05/02 06:07:56;;;;;;;35.65;23.92;;;;;;;9.58;73.72;101370.75;5079050;28;20036;-44
2022/05/02 06:10:25;;;;;;;29.80;21.27;;;;;;;9.59;73.15;101375.13;5096814;28;20032;-44
2022/05/02 06:12:52;;;;;;;29.08;20.80;;;;;;;9.62;72.21;101364.91;5095876;28;20028;-46
2022/05/02 06:21:01;;;;;;;29.88;20.63;;;;;;;9.65;73.50;101379.81;5066583;28;20391;-45
2022/05/02 06:23:32;;;;;;;29.20;20.52;;;;;;;9.48;73.16;101352.97;5095609;28;20423;-44
2022/05/02 06:25:58;;;;;;;32.30;19.90;;;;;;;9.75;72.76;101368.94;5077433;28;20129;-44
2022/05/02 06:28:31;;;;;;;25.40;17.48;;;;;;;9.78;72.33;101371.28;5095416;28;20032;-45
2022/05/02 06:31:00;;;;;;;28.58;18.33;;;;;;;9.84;72.18;101382.22;5077357;28;20044;-47
2022/05/02 06:33:26;;;;;;;22.15;15.88;;;;;;;9.88;71.90;101377.34;5095846;28;20101;-45
2022/05/02 06:36:15;;;;;;;26.75;18.77;;;;;;;9.92;71.74;101372.47;5095252;28;20032;-44
2022/05/02 06:39:05;;;;;;;33.13;21.92;;;;;;;9.91;72.45;101377.00;5076796;28;20028;-45
2022/05/02 06:41:57;;;;;;;25.80;18.83;;;;;;;9.98;71.90;101374.50;5063251;28;20426;-45
2022/05/02 06:44:50;;;;;;;30.13;19.15;;;;;;;10.03;71.56;101378.34;5093630;28;20111;-46
2022/05/02 06:47:42;;;;;;;22.35;16.02;;;;;;;10.02;71.50;101365.09;5060336;28;20039;-44
2022/05/02 06:50:10;;;;;;;33.05;18.73;;;;;;;10.09;71.34;101379.53;5060342;28;20056;-45
2022/05/02 06:52:44;;;;;;;27.67;16.77;;;;;;;10.14;71.11;101379.00;5057547;28;20059;-46
2022/05/02 06:55:28;;;;;;;28.85;20.05;;;;;;;10.10;71.29;101372.31;5075103;28;20082;-45
2022/05/02 06:58:18;;;;;;;29.30;21.08;;;;;;;10.17;71.48;101378.69;5077500;28;20044;-46
2022/05/02 07:00:57;;;;;;;25.58;18.73;;;;;;;10.20;71.23;101375.66;5060818;28;20048;-47
2022/05/02 07:03:47;;;;;;;30.52;19.63;;;;;;;10.20;70.85;101370.31;5078843;28;20032;-45
2022/05/02 07:06:42;;;;;;;24.05;16.13;;;;;;;10.39;70.36;101395.97;5061015;28;20071;-49
2022/05/02 07:09:13;;;;;;;25.38;17.02;;;;;;;10.46;69.81;101395.13;5061125;28;20041;-45
2022/05/02 07:11:52;;;;;;;34.42;21.52;;;;;;;10.51;70.74;101396.47;5074325;28;20029;-45
2022/05/02 07:14:43;;;;;;;28.77;19.92;;;;;;;10.57;69.79;101385.88;5056415;28;20028;-45
2022/05/02 07:17:21;;;;;;;30.52;21.65;;;;;;;10.60;69.71;101390.06;5074221;28;20021;-44
2022/05/02 07:20:12;;;;;;;36.88;24.60;;;;;;;10.66;69.46;101389.41;5074042;28;20045;-48
2022/05/02 07:22:43;;;;;;;34.53;22.30;;;;;;;10.78;68.79;101390.69;5059509;28;20472;-45
2022/05/02 07:25:12;;;;;;;29.33;21.30;;;;;;;10.88;68.57;101393.19;5056689;28;20119;-45
2022/05/02 07:28:06;;;;;;;36.72;22.35;;;;;;;10.97;68.90;101392.16;5040069;28;20084;-44
2022/05/02 07:30:32;;;;;;;26.20;17.98;;;;;;;11.13;67.90;101374.31;5060792;28;20037;-44
2022/05/02 07:33:01;;;;;;;34.33;22.45;;;;;;;11.46;67.47;101382.19;5073948;28;20033;-45
2022/05/02 07:35:28;;;;;;;32.45;21.48;;;;;;;11.77;66.79;101387.53;5056222;28;20041;-45
2022/05/02 07:37:55;;;;;;;30.42;19.90;;;;;;;11.91;65.74;101388.66;5056036;28;20024;-45
2022/05/02 07:40:21;;;;;;;34.83;24.50;;;;;;;11.82;65.28;101387.84;5056201;28;20059;-44
2022/05/02 07:42:48;;;;;;;32.97;23.52;;;;;;;11.90;64.38;101389.66;5056095;28;20036;-45
2022/05/02 07:45:17;;;;;;;33.85;23.05;;;;;;;11.85;64.17;101368.66;5073631;28;20166;-45
2022/05/02 07:47:47;;;;;;;30.83;20.50;;;;;;;12.18;64.31;101387.25;5074096;28;20033;-45
2022/05/02 07:50:21;;;;;;;32.83;21.50;;;;;;;12.31;62.90;101389.34;5072837;28;20020;-44
2022/05/02 07:52:58;;;;;;;35.88;23.80;;;;;;;12.28;62.00;101389.72;5057839;28;20373;-44
2022/05/02 07:55:34;;;;;;;25.40;18.50;;;;;;;12.33;63.11;101387.28;5075714;28;20043;-45
2022/05/02 07:58:06;;;;;;;31.63;21.50;;;;;;;12.51;62.51;101395.88;5073879;28;20403;-43
2022/05/02 08:00:32;;;;;;;27.67;19.77;;;;;;;12.23;62.95;101395.63;5073658;28;20564;-44
2022/05/02 08:02:58;;;;;;;30.10;20.63;;;;;;;12.05;63.26;101397.81;5055343;28;20063;-48
2022/05/02 08:05:29;;;;;;;30.85;20.05;;;;;;;11.81;63.67;101396.94;5074962;28;20449;-46
2022/05/02 08:08:07;;;;;;;24.27;18.48;;;;;;;11.75;63.99;101398.47;5076756;28;20040;-45
2022/05/02 08:10:51;;;;;;;21.65;14.63;;;;;;;11.91;63.68;101405.66;5076087;28;20048;-44
2022/05/02 08:13:38;;;;;;;;;;;;;;;11.95;63.11;101398.88;5059289;28;20484;-45
2022/05/02 08:16:18;;;;;;;22.98;16.70;;;;;;;12.04;63.03;101404.22;5058176;28;20010;-47
2022/05/02 08:19:05;;;;;;;22.70;16.73;;;;;;;12.18;62.69;101398.88;5076049;28;20048;-46
2022/05/02 08:21:43;;;;;;;18.17;15.45;;;;;;;12.39;61.62;101400.88;5075769;28;20119;-45
2022/05/02 08:28:01;;;;;;;;;;;;;;;;;;;;;
2022/05/02 08:30:35;;;;;;;15.02;12.43;;;;;;;13.38;59.38;101407.06;5076138;28;20489;-44
2022/05/02 08:33:26;;;;;;;13.43;11.68;;;;;;;14.04;57.64;101407.78;5074950;28;20487;-45
2022/05/02 08:36:27;;;;;;;12.57;10.63;;;;;;;13.89;53.97;101405.16;5058270;28;20030;-44
2022/05/02 08:39:14;;;;;;;11.60;9.82;;;;;;;14.16;55.23;101412.69;5045328;28;20033;-44
2022/05/02 08:42:17;;;;;;;11.63;9.15;;;;;;;14.40;55.48;101406.84;5074528;28;20047;-45
2022/05/02 08:45:19;;;;;;;11.60;10.18;;;;;;;14.24;52.88;101409.81;5049466;28;20061;-45
2022/05/02 08:48:10;;;;;;;18.67;12.65;;;;;;;13.90;53.55;101403.28;5082040;28;20068;-45
2022/05/02 08:51:16;;;;;;;16.27;13.18;;;;;;;13.96;55.17;101413.31;5077675;28;20173;-44
2022/05/02 08:54:15;;;;;;;15.57;12.95;;;;;;;14.17;54.92;101406.22;5052358;28;20028;-45
2022/05/02 08:57:24;;;;;;;17.95;13.63;;;;;;;14.45;53.61;101415.22;5094542;28;20040;-44
2022/05/02 09:00:05;;;;;;;19.55;12.40;;;;;;;16.38;51.52;101389.94;5052359;28;20024;-48
2022/05/02 09:03:09;;;;;;;14.95;11.13;;;;;;;17.29;48.81;101404.59;5093207;28;20028;-46
2022/05/02 09:06:18;;;;;;;12.00;10.13;;;;;;;17.31;46.48;101402.47;5080688;28;20078;-43
2022/05/02 09:09:16;;;;;;;11.93;10.73;;;;;;;17.05;47.16;101384.41;5069687;28;20031;-46
2022/05/02 09:12:18;;;;;;;13.40;11.55;;;;;;;16.66;48.14;101397.84;5082463;28;20406;-47
2022/05/02 09:15:10;;;;;;;11.75;9.98;;;;;;;17.06;44.98;101397.78;5087382;28;20047;-47
2022/05/02 09:18:15;;;;;;;12.20;10.18;;;;;;;16.93;46.07;101400.53;5085695;28;20213;-45
2022/05/02 09:20:55;;;;;;;10.02;9.02;;;;;;;18.67;43.96;101384.00;5071422;28;20027;-47
2022/05/02 09:23:57;;;;;;;9.50;8.60;;;;;;;18.99;40.95;101392.06;5097986;28;20050;-44
2022/05/02 09:27:03;;;;;;;9.65;8.75;;;;;;;17.80;43.89;101388.22;5085202;28;20099;-44
2022/05/02 09:30:05;;;;;;;9.43;8.52;;;;;;;17.56;46.23;101392.53;5072561;28;20032;-46
2022/05/02 09:32:45;;;;;;;9.88;8.80;;;;;;;17.61;45.16;101390.00;5081824;28;20095;-44
2022/05/02 09:35:16;;;;;;;10.25;8.75;;;;;;;17.38;46.78;101397.84;5096588;28;20082;-45
2022/05/02 09:37:55;;;;;;;10.88;9.77;;;;;;;17.19;46.13;101389.56;5096566;28;20456;-46
2022/05/02 09:40:35;;;;;;;11.20;9.35;;;;;;;17.00;47.91;101393.22;5096384;28;20028;-46
2022/05/02 09:50:07;;;;;;;9.68;8.68;;;;;;;16.72;45.93;101380.72;5081796;28;20035;-43
2022/05/02 09:53:02;;;;;;;10.80;9.65;;;;;;;16.56;46.08;101392.84;5096648;28;20028;-44
2022/05/02 09:58:37;;;;;;;10.80;9.60;;;;;;;16.31;48.00;101392.66;5068806;28;20085;-43
2022/05/02 10:01:24;;;;;;;11.80;9.95;;;;;;;16.36;46.82;101390.16;5080379;28;20024;-44
2022/05/02 10:04:19;;;;;;;11.15;10.02;;;;;;;16.45;46.14;101394.34;5080580;28;20126;-43
2022/05/02 10:06:54;;;;;;;10.53;9.50;;;;;;;16.62;47.15;101386.59;5066927;28;20055;-44
2022/05/02 10:09:52;;;;;;;14.43;10.27;;;;;;;16.82;47.40;101394.69;5098954;28;20169;-46
2022/05/02 10:12:46;;;;;;;11.18;10.07;;;;;;;17.11;47.41;101395.25;5082840;28;20036;-46
2022/05/02 10:15:52;;;;;;;11.88;10.35;;;;;;;17.18;46.98;101397.97;5081889;28;20513;-48
2022/05/02 10:18:37;;;;;;;16.42;11.02;;;;;;;16.95;46.80;101401.16;5070753;28;20040;-45
2022/05/02 10:21:09;;;;;;;12.18;10.93;;;;;;;16.59;47.04;101380.75;5077287;28;20062;-44
2022/05/02 10:24:15;;;;;;;15.43;12.52;;;;;;;16.67;46.52;101385.13;5095883;28;20055;-46
2022/05/02 10:26:48;;;;;;;13.90;10.82;;;;;;;16.70;47.22;101396.38;5070197;28;20081;-43
2022/05/02 10:29:34;;;;;;;10.60;9.55;;;;;;;16.80;46.72;101393.22;5096118;28;20028;-45
2022/05/02 10:32:08;;;;;;;14.00;10.95;;;;;;;16.93;46.34;101386.97;5077386;28;20056;-47
2022/05/02 10:34:36;;;;;;;;;;;;;;;17.37;44.11;101396.22;5062234;28;20028;-43
2022/05/02 10:37:06;;;;;;;10.30;8.95;;;;;;;20.28;41.35;101370.75;5095584;28;20429;-44
2022/05/02 10:39:40;;;;;;;12.18;10.65;;;;;;;19.55;41.53;101385.47;5096202;28;20082;-43
2022/05/02 10:42:08;;;;;;;11.43;10.32;;;;;;;18.98;42.81;101391.25;5096139;28;20035;-45
2022/05/02 10:44:46;;;;;;;11.98;10.20;;;;;;;18.57;42.22;101384.50;5074471;28;20443;-44
2022/05/02 10:47:18;;;;;;;9.68;8.68;;;;;;;18.39;43.94;101393.47;5058866;28;20044;-45
2022/05/02 10:50:03;;;;;;;14.02;11.02;;;;;;;17.90;41.86;101390.47;5076924;28;20074;-44
2022/05/02 10:53:04;;;;;;;14.15;11.45;;;;;;;17.39;42.94;101380.53;5077387;28;20059;-45
2022/05/02 10:55:33;;;;;;;11.48;10.30;;;;;;;17.37;44.86;101394.31;5042145;28;20036;-50
2022/05/02 10:58:16;;;;;;;12.45;11.18;;;;;;;17.34;44.03;101391.19;5061529;28;20094;-44
2022/05/02 11:01:03;;;;;;;10.30;8.95;;;;;;;17.71;43.28;101378.66;5076726;28;20094;-44
2022/05/02 11:04:06;;;;;;;10.82;9.73;;;;;;;17.52;43.81;101363.34;5076016;28;20078;-45
2022/05/02 11:07:04;;;;;;;12.07;10.18;;;;;;;18.01;43.55;101385.41;5047270;28;20035;-44
2022/05/02 11:09:40;;;;;;;11.68;9.18;;;;;;;19.05;42.54;101381.06;5063445;28;20029;-47
2022/05/02 11:12:18;;;;;;;11.10;10.10;;;;;;;19.58;40.37;101376.03;5059361;28;20051;-44
2022/05/02 11:15:05;;;;;;;11.00;9.88;;;;;;;19.09;41.94;101367.84;5076929;28;20041;-43
2022/05/02 11:21:17;;;;;;;12.90;10.13;;;;;;;21.08;38.28;101361.09;5033983;28;20039;-44
2022/05/02 11:24:05;;;;;;;10.88;9.77;;;;;;;20.43;39.58;101358.53;5076793;28;20033;-44
2022/05/02 11:26:45;;;;;;;11.48;10.27;;;;;;;20.01;40.28;101354.00;5077090;28;20032;-45
2022/05/02 11:29:41;;;;;;;10.63;9.60;;;;;;;20.24;39.74;101360.53;5077265;28;20089;-44
2022/05/02 11:32:37;;;;;;;9.48;8.68;;;;;;;20.12;41.03;101357.81;5047030;28;20083;-46
2022/05/02 11:35:13;;;;;;;11.52;8.55;;;;;;;19.94;41.21;101352.44;5062499;28;20108;-43
2022/05/02 11:37:53;;;;;;;9.68;8.88;;;;;;;19.71;40.36;101356.75;5060049;28;20021;-44
2022/05/02 11:40:27;;;;;;;11.75;9.80;;;;;;;19.68;41.03;101359.94;5075295;28;20035;-43
2022/05/02 11:42:54;;;;;;;13.13;10.18;;;;;;;19.67;41.07;101364.56;5076575;28;20456;-46
2022/05/02 11:45:42;;;;;;;10.63;9.52;;;;;;;19.60;38.99;101365.72;5075080;28;20045;-45
2022/05/02 11:48:47;;;;;;;10.52;8.85;;;;;;;19.63;40.65;101355.19;5059088;28;20086;-43
2022/05/02 11:51:41;;;;;;;10.57;9.57;;;;;;;19.58;40.36;101360.50;5064062;28;20033;-45
2022/05/02 11:54:28;;;;;;;9.38;8.25;;;;;;;19.38;40.87;101349.88;5044741;28;20388;-43
2022/05/02 11:57:20;;;;;;;10.25;9.35;;;;;;;19.99;40.51;101358.03;5074736;28;20126;-44
2022/05/02 12:00:11;;;;;;;10.40;8.88;;;;;;;20.17;39.58;101363.41;5060522;28;20067;-44
2022/05/02 12:02:46;;;;;;;8.77;7.97;;;;;;;20.11;40.38;101345.22;5076048;28;20103;-45
2022/05/02 12:05:31;;;;;;;10.20;9.30;;;;;;;20.35;38.42;101348.81;5075170;28;20504;-44
2022/05/02 12:08:02;;;;;;;9.77;8.88;;;;;;;20.87;38.84;101335.25;5074789;28;20049;-46
2022/05/02 12:10:47;;;;;;;10.63;9.52;;;;;;;21.69;36.61;101346.94;5075063;28;20437;-44
2022/05/02 12:13:21;;;;;;;10.30;9.23;;;;;;;24.02;34.46;101347.03;5074576;28;20032;-45
2022/05/02 12:16:01;;;;;;;9.85;8.75;;;;;;;24.42;32.01;101335.47;5056449;28;20455;-45
2022/05/02 12:18:55;;;;;;;7.68;6.65;;;;;;;23.63;33.02;101341.72;5074444;28;20028;-46
2022/05/02 12:21:31;;;;;;;8.57;7.88;;;;;;;25.51;31.59;101329.38;5060945;28;20032;-47
2022/05/02 12:24:02;;;;;;;8.02;7.20;;;;;;;26.80;30.75;101324.56;5074568;28;20091;-47